Cape Race, Canada
Current Conditions -  °F | °C
As of 3:30 PM on Thursday 27 Nov 2014 (Local Time) from CYYT Reporting Station
Moderate Rain Moderate Rain  
Wind Chill: 36°   Ceiling: 1700
Heat Index: 39°   Visibility: 2.5mi
Dew Point: 39°   Wind: 5mph
Humidity: 100%   Direction: 340°NNW
Pressure: 29.45"   Gusts: NA
Location:  46.66°N, 53.09°W
Report Text: CYYT 271830Z 34004KT 320V020 2 1/2SM R11/5500VP6000FT/D RA BR OVC017 04/04 A2945 RMK FG5SC3 SLP979
Loading
Personal Weather Stations






























Interactive Weather Map New forecast layout! Learn more

10-Day Weather Forecast

Advertisements
Track Severe Weather on mobile